sensor_id;sensor_type;location;lat;lon;timestamp;P1;durP1;ratioP1;P2;durP2;ratioP2
25731;SDS011;13585;50.864;4.406;2022-12-07T00:01:13;4.10;;;3.17;;
25731;SDS011;13585;50.864;4.406;2022-12-07T00:03:41;5.13;;;3.55;;
25731;SDS011;13585;50.864;4.406;2022-12-07T00:06:08;4.80;;;3.17;;
25731;SDS011;13585;50.864;4.406;2022-12-07T00:08:35;4.55;;;3.08;;
25731;SDS011;13585;50.864;4.406;2022-12-07T00:11:02;4.93;;;3.20;;
25731;SDS011;13585;50.864;4.406;2022-12-07T00:13:29;4.03;;;2.75;;
25731;SDS011;13585;50.864;4.406;2022-12-07T00:15:55;5.15;;;3.45;;
25731;SDS011;13585;50.864;4.406;2022-12-07T00:18:24;4.70;;;3.15;;
25731;SDS011;13585;50.864;4.406;2022-12-07T00:20:50;4.63;;;3.33;;
25731;SDS011;13585;50.864;4.406;2022-12-07T00:23:15;4.50;;;3.00;;
25731;SDS011;13585;50.864;4.406;2022-12-07T00:25:41;4.97;;;3.40;;
25731;SDS011;13585;50.864;4.406;2022-12-07T00:28:07;5.95;;;3.30;;
25731;SDS011;13585;50.864;4.406;2022-12-07T00:30:34;5.63;;;3.42;;
25731;SDS011;13585;50.864;4.406;2022-12-07T00:33:00;5.78;;;3.10;;
25731;SDS011;13585;50.864;4.406;2022-12-07T00:35:26;4.57;;;3.20;;
25731;SDS011;13585;50.864;4.406;2022-12-07T00:37:51;5.35;;;3.58;;
25731;SDS011;13585;50.864;4.406;2022-12-07T00:40:17;4.57;;;3.65;;
25731;SDS011;13585;50.864;4.406;2022-12-07T00:42:42;5.22;;;3.50;;
25731;SDS011;13585;50.864;4.406;2022-12-07T00:45:08;6.38;;;3.92;;
25731;SDS011;13585;50.864;4.406;2022-12-07T00:47:34;4.05;;;3.03;;
25731;SDS011;13585;50.864;4.406;2022-12-07T00:49:59;4.57;;;3.15;;
25731;SDS011;13585;50.864;4.406;2022-12-07T00:52:25;4.45;;;3.35;;
25731;SDS011;13585;50.864;4.406;2022-12-07T00:54:50;4.15;;;3.22;;
25731;SDS011;13585;50.864;4.406;2022-12-07T00:57:16;4.70;;;3.05;;
25731;SDS011;13585;50.864;4.406;2022-12-07T00:59:42;5.68;;;3.30;;
25731;SDS011;13585;50.864;4.406;2022-12-07T01:02:07;6.03;;;3.35;;
25731;SDS011;13585;50.864;4.406;2022-12-07T01:04:33;5.80;;;3.60;;
25731;SDS011;13585;50.864;4.406;2022-12-07T01:06:59;5.15;;;3.38;;
25731;SDS011;13585;50.864;4.406;2022-12-07T01:09:25;4.63;;;3.00;;
25731;SDS011;13585;50.864;4.406;2022-12-07T01:11:50;4.93;;;3.30;;
25731;SDS011;13585;50.864;4.406;2022-12-07T01:14:16;5.00;;;3.00;;
25731;SDS011;13585;50.864;4.406;2022-12-07T01:16:41;4.78;;;2.97;;
25731;SDS011;13585;50.864;4.406;2022-12-07T01:19:07;6.35;;;3.35;;
25731;SDS011;13585;50.864;4.406;2022-12-07T01:21:33;5.53;;;3.33;;
25731;SDS011;13585;50.864;4.406;2022-12-07T01:24:02;3.50;;;2.85;;
25731;SDS011;13585;50.864;4.406;2022-12-07T01:26:29;4.55;;;3.03;;
25731;SDS011;13585;50.864;4.406;2022-12-07T01:28:55;4.85;;;2.72;;
25731;SDS011;13585;50.864;4.406;2022-12-07T01:31:24;4.30;;;2.95;;
25731;SDS011;13585;50.864;4.406;2022-12-07T01:33:51;4.68;;;2.95;;
25731;SDS011;13585;50.864;4.406;2022-12-07T01:36:19;5.30;;;3.30;;
25731;SDS011;13585;50.864;4.406;2022-12-07T01:38:47;4.30;;;3.03;;
25731;SDS011;13585;50.864;4.406;2022-12-07T01:41:16;4.30;;;3.05;;
25731;SDS011;13585;50.864;4.406;2022-12-07T01:46:47;4.43;;;2.92;;
25731;SDS011;13585;50.864;4.406;2022-12-07T01:49:21;5.20;;;3.60;;
25731;SDS011;13585;50.864;4.406;2022-12-07T01:54:14;4.03;;;3.22;;
25731;SDS011;13585;50.864;4.406;2022-12-07T01:56:42;4.65;;;3.33;;
25731;SDS011;13585;50.864;4.406;2022-12-07T01:59:16;5.13;;;3.20;;
25731;SDS011;13585;50.864;4.406;2022-12-07T02:01:44;5.63;;;3.30;;
25731;SDS011;13585;50.864;4.406;2022-12-07T02:04:10;4.53;;;3.63;;
25731;SDS011;13585;50.864;4.406;2022-12-07T02:06:37;3.83;;;3.00;;
25731;SDS011;13585;50.864;4.406;2022-12-07T02:09:06;4.32;;;3.10;;
25731;SDS011;13585;50.864;4.406;2022-12-07T02:11:32;4.82;;;3.20;;
25731;SDS011;13585;50.864;4.406;2022-12-07T02:13:58;4.88;;;3.60;;
25731;SDS011;13585;50.864;4.406;2022-12-07T02:22:18;4.72;;;3.25;;
25731;SDS011;13585;50.864;4.406;2022-12-07T02:24:55;5.15;;;3.47;;
25731;SDS011;13585;50.864;4.406;2022-12-07T02:30:46;7.22;;;3.17;;
25731;SDS011;13585;50.864;4.406;2022-12-07T02:33:16;4.57;;;3.10;;
25731;SDS011;13585;50.864;4.406;2022-12-07T02:36:04;5.70;;;3.30;;
25731;SDS011;13585;50.864;4.406;2022-12-07T02:41:25;4.88;;;3.20;;
25731;SDS011;13585;50.864;4.406;2022-12-07T02:44:05;4.70;;;3.30;;
25731;SDS011;13585;50.864;4.406;2022-12-07T02:46:36;4.85;;;3.33;;
25731;SDS011;13585;50.864;4.406;2022-12-07T02:49:05;4.78;;;2.80;;
25731;SDS011;13585;50.864;4.406;2022-12-07T02:51:32;4.32;;;3.20;;
25731;SDS011;13585;50.864;4.406;2022-12-07T02:53:59;4.15;;;3.30;;
25731;SDS011;13585;50.864;4.406;2022-12-07T03:07:40;5.40;;;3.38;;
25731;SDS011;13585;50.864;4.406;2022-12-07T03:13:12;4.78;;;3.47;;
25731;SDS011;13585;50.864;4.406;2022-12-07T03:18:29;4.53;;;2.85;;
25731;SDS011;13585;50.864;4.406;2022-12-07T03:20:59;3.97;;;2.75;;
25731;SDS011;13585;50.864;4.406;2022-12-07T03:25:58;3.47;;;2.55;;
25731;SDS011;13585;50.864;4.406;2022-12-07T03:28:27;4.50;;;3.13;;
25731;SDS011;13585;50.864;4.406;2022-12-07T03:31:01;3.47;;;3.03;;
25731;SDS011;13585;50.864;4.406;2022-12-07T03:33:36;3.17;;;2.55;;
25731;SDS011;13585;50.864;4.406;2022-12-07T03:41:53;3.75;;;2.90;;
25731;SDS011;13585;50.864;4.406;2022-12-07T03:44:20;3.88;;;2.90;;
25731;SDS011;13585;50.864;4.406;2022-12-07T03:49:41;4.55;;;2.95;;
25731;SDS011;13585;50.864;4.406;2022-12-07T03:57:41;4.25;;;2.65;;
25731;SDS011;13585;50.864;4.406;2022-12-07T04:00:09;3.05;;;2.75;;
25731;SDS011;13585;50.864;4.406;2022-12-07T04:02:35;3.65;;;2.92;;
25731;SDS011;13585;50.864;4.406;2022-12-07T04:05:01;3.80;;;2.97;;
25731;SDS011;13585;50.864;4.406;2022-12-07T04:07:27;4.30;;;3.28;;
25731;SDS011;13585;50.864;4.406;2022-12-07T04:09:53;4.72;;;2.83;;
25731;SDS011;13585;50.864;4.406;2022-12-07T04:12:20;3.92;;;2.63;;
25731;SDS011;13585;50.864;4.406;2022-12-07T04:14:46;3.97;;;2.80;;
25731;SDS011;13585;50.864;4.406;2022-12-07T04:17:12;4.10;;;2.75;;
25731;SDS011;13585;50.864;4.406;2022-12-07T04:19:37;3.97;;;2.78;;
25731;SDS011;13585;50.864;4.406;2022-12-07T04:22:03;3.60;;;2.90;;
25731;SDS011;13585;50.864;4.406;2022-12-07T04:24:29;3.30;;;2.70;;
25731;SDS011;13585;50.864;4.406;2022-12-07T04:26:55;3.35;;;2.60;;
25731;SDS011;13585;50.864;4.406;2022-12-07T04:29:21;3.67;;;2.53;;
25731;SDS011;13585;50.864;4.406;2022-12-07T04:31:47;3.42;;;2.58;;
25731;SDS011;13585;50.864;4.406;2022-12-07T04:34:14;3.08;;;2.42;;
25731;SDS011;13585;50.864;4.406;2022-12-07T04:36:40;3.03;;;2.35;;
25731;SDS011;13585;50.864;4.406;2022-12-07T04:39:07;3.75;;;2.60;;
25731;SDS011;13585;50.864;4.406;2022-12-07T04:41:33;3.63;;;2.40;;
25731;SDS011;13585;50.864;4.406;2022-12-07T04:44:00;4.13;;;2.50;;
25731;SDS011;13585;50.864;4.406;2022-12-07T04:46:28;4.28;;;2.55;;
25731;SDS011;13585;50.864;4.406;2022-12-07T04:48:55;2.75;;;2.35;;
25731;SDS011;13585;50.864;4.406;2022-12-07T04:51:24;3.63;;;2.60;;
25731;SDS011;13585;50.864;4.406;2022-12-07T04:53:51;3.05;;;2.30;;
25731;SDS011;13585;50.864;4.406;2022-12-07T04:56:17;3.05;;;2.53;;
25731;SDS011;13585;50.864;4.406;2022-12-07T04:58:44;2.95;;;2.20;;
25731;SDS011;13585;50.864;4.406;2022-12-07T05:01:10;3.30;;;2.20;;
25731;SDS011;13585;50.864;4.406;2022-12-07T05:03:36;3.25;;;2.40;;
25731;SDS011;13585;50.864;4.406;2022-12-07T05:06:02;3.85;;;2.60;;
25731;SDS011;13585;50.864;4.406;2022-12-07T05:08:28;2.75;;;2.22;;
25731;SDS011;13585;50.864;4.406;2022-12-07T05:10:54;4.03;;;2.33;;
25731;SDS011;13585;50.864;4.406;2022-12-07T05:13:20;4.00;;;2.30;;
25731;SDS011;13585;50.864;4.406;2022-12-07T05:15:48;2.55;;;2.10;;
25731;SDS011;13585;50.864;4.406;2022-12-07T05:18:14;3.22;;;2.47;;
25731;SDS011;13585;50.864;4.406;2022-12-07T05:20:40;3.78;;;2.70;;
25731;SDS011;13585;50.864;4.406;2022-12-07T05:23:07;2.55;;;2.30;;
25731;SDS011;13585;50.864;4.406;2022-12-07T05:25:32;3.70;;;2.40;;
25731;SDS011;13585;50.864;4.406;2022-12-07T05:27:58;4.15;;;2.65;;
25731;SDS011;13585;50.864;4.406;2022-12-07T05:30:24;2.97;;;2.40;;
25731;SDS011;13585;50.864;4.406;2022-12-07T05:32:50;3.88;;;2.72;;
25731;SDS011;13585;50.864;4.406;2022-12-07T05:35:16;3.85;;;2.28;;
25731;SDS011;13585;50.864;4.406;2022-12-07T05:37:43;3.13;;;2.13;;
25731;SDS011;13585;50.864;4.406;2022-12-07T05:40:09;3.65;;;2.50;;
25731;SDS011;13585;50.864;4.406;2022-12-07T05:42:35;3.33;;;2.40;;
25731;SDS011;13585;50.864;4.406;2022-12-07T05:45:00;3.50;;;2.50;;
25731;SDS011;13585;50.864;4.406;2022-12-07T05:47:26;3.28;;;2.17;;
25731;SDS011;13585;50.864;4.406;2022-12-07T05:49:52;3.80;;;2.47;;
25731;SDS011;13585;50.864;4.406;2022-12-07T05:52:17;4.75;;;2.33;;
25731;SDS011;13585;50.864;4.406;2022-12-07T05:54:43;6.30;;;2.45;;
25731;SDS011;13585;50.864;4.406;2022-12-07T05:57:09;4.13;;;2.20;;
25731;SDS011;13585;50.864;4.406;2022-12-07T05:59:35;3.70;;;2.33;;
25731;SDS011;13585;50.864;4.406;2022-12-07T06:02:02;3.38;;;2.30;;
25731;SDS011;13585;50.864;4.406;2022-12-07T06:04:30;2.70;;;2.10;;
25731;SDS011;13585;50.864;4.406;2022-12-07T06:06:58;3.22;;;2.20;;
25731;SDS011;13585;50.864;4.406;2022-12-07T06:09:25;2.92;;;2.20;;
25731;SDS011;13585;50.864;4.406;2022-12-07T06:11:51;3.67;;;2.40;;
25731;SDS011;13585;50.864;4.406;2022-12-07T06:14:36;3.47;;;2.20;;
25731;SDS011;13585;50.864;4.406;2022-12-07T06:17:01;2.90;;;2.10;;
25731;SDS011;13585;50.864;4.406;2022-12-07T06:19:27;4.65;;;2.70;;
25731;SDS011;13585;50.864;4.406;2022-12-07T06:21:53;2.33;;;1.80;;
25731;SDS011;13585;50.864;4.406;2022-12-07T06:24:19;4.68;;;2.75;;
25731;SDS011;13585;50.864;4.406;2022-12-07T06:26:44;4.10;;;2.40;;
25731;SDS011;13585;50.864;4.406;2022-12-07T06:29:11;4.13;;;2.22;;
25731;SDS011;13585;50.864;4.406;2022-12-07T06:31:37;5.78;;;2.05;;
25731;SDS011;13585;50.864;4.406;2022-12-07T06:34:04;4.90;;;2.20;;
25731;SDS011;13585;50.864;4.406;2022-12-07T06:36:31;4.22;;;2.17;;
25731;SDS011;13585;50.864;4.406;2022-12-07T06:38:58;4.10;;;2.30;;
25731;SDS011;13585;50.864;4.406;2022-12-07T06:41:23;3.95;;;2.35;;
25731;SDS011;13585;50.864;4.406;2022-12-07T06:43:49;3.13;;;2.20;;
25731;SDS011;13585;50.864;4.406;2022-12-07T06:46:16;5.40;;;2.10;;
25731;SDS011;13585;50.864;4.406;2022-12-07T06:48:42;3.90;;;2.10;;
25731;SDS011;13585;50.864;4.406;2022-12-07T06:51:08;3.13;;;2.10;;
25731;SDS011;13585;50.864;4.406;2022-12-07T06:53:35;7.57;;;2.78;;
25731;SDS011;13585;50.864;4.406;2022-12-07T06:56:01;5.13;;;2.42;;
25731;SDS011;13585;50.864;4.406;2022-12-07T06:58:27;5.82;;;2.30;;
25731;SDS011;13585;50.864;4.406;2022-12-07T07:00:52;2.63;;;2.03;;
25731;SDS011;13585;50.864;4.406;2022-12-07T07:03:18;3.67;;;1.95;;
25731;SDS011;13585;50.864;4.406;2022-12-07T07:05:44;4.22;;;2.13;;
25731;SDS011;13585;50.864;4.406;2022-12-07T07:08:10;6.95;;;2.20;;
25731;SDS011;13585;50.864;4.406;2022-12-07T07:10:37;3.90;;;2.25;;
25731;SDS011;13585;50.864;4.406;2022-12-07T07:13:03;3.33;;;2.13;;
25731;SDS011;13585;50.864;4.406;2022-12-07T07:15:30;6.53;;;2.50;;
25731;SDS011;13585;50.864;4.406;2022-12-07T07:17:56;3.38;;;1.83;;
25731;SDS011;13585;50.864;4.406;2022-12-07T07:20:22;4.22;;;2.22;;
25731;SDS011;13585;50.864;4.406;2022-12-07T07:22:48;4.65;;;2.17;;
25731;SDS011;13585;50.864;4.406;2022-12-07T07:25:14;5.50;;;2.30;;
25731;SDS011;13585;50.864;4.406;2022-12-07T07:27:40;2.92;;;2.30;;
25731;SDS011;13585;50.864;4.406;2022-12-07T07:30:06;3.65;;;2.13;;
25731;SDS011;13585;50.864;4.406;2022-12-07T07:32:32;2.75;;;1.98;;
25731;SDS011;13585;50.864;4.406;2022-12-07T07:34:59;4.43;;;2.35;;
25731;SDS011;13585;50.864;4.406;2022-12-07T07:37:25;2.95;;;2.00;;
25731;SDS011;13585;50.864;4.406;2022-12-07T07:39:51;2.97;;;2.00;;
25731;SDS011;13585;50.864;4.406;2022-12-07T07:42:16;2.90;;;2.10;;
25731;SDS011;13585;50.864;4.406;2022-12-07T07:44:42;3.85;;;1.77;;
25731;SDS011;13585;50.864;4.406;2022-12-07T07:47:07;5.80;;;1.90;;
25731;SDS011;13585;50.864;4.406;2022-12-07T07:49:33;4.57;;;2.05;;
25731;SDS011;13585;50.864;4.406;2022-12-07T07:51:59;4.13;;;1.90;;
25731;SDS011;13585;50.864;4.406;2022-12-07T07:54:24;2.92;;;1.90;;
25731;SDS011;13585;50.864;4.406;2022-12-07T07:56:50;5.35;;;2.00;;
25731;SDS011;13585;50.864;4.406;2022-12-07T07:59:16;4.15;;;2.10;;
25731;SDS011;13585;50.864;4.406;2022-12-07T08:01:42;3.95;;;2.33;;
25731;SDS011;13585;50.864;4.406;2022-12-07T08:04:07;3.05;;;2.03;;
25731;SDS011;13585;50.864;4.406;2022-12-07T08:06:33;4.50;;;2.22;;
25731;SDS011;13585;50.864;4.406;2022-12-07T08:08:59;6.10;;;2.10;;
25731;SDS011;13585;50.864;4.406;2022-12-07T08:11:24;2.22;;;1.77;;
25731;SDS011;13585;50.864;4.406;2022-12-07T08:13:50;2.63;;;1.88;;
25731;SDS011;13585;50.864;4.406;2022-12-07T08:16:16;2.78;;;2.10;;
25731;SDS011;13585;50.864;4.406;2022-12-07T08:18:43;3.55;;;2.00;;
25731;SDS011;13585;50.864;4.406;2022-12-07T08:21:13;3.83;;;1.98;;
25731;SDS011;13585;50.864;4.406;2022-12-07T08:23:40;4.00;;;2.35;;
25731;SDS011;13585;50.864;4.406;2022-12-07T08:26:07;4.28;;;2.33;;
25731;SDS011;13585;50.864;4.406;2022-12-07T08:28:35;2.08;;;1.70;;
25731;SDS011;13585;50.864;4.406;2022-12-07T08:31:10;3.90;;;2.10;;
25731;SDS011;13585;50.864;4.406;2022-12-07T08:33:38;4.65;;;1.88;;
25731;SDS011;13585;50.864;4.406;2022-12-07T08:36:05;2.45;;;1.95;;
25731;SDS011;13585;50.864;4.406;2022-12-07T08:38:36;2.45;;;1.90;;
25731;SDS011;13585;50.864;4.406;2022-12-07T08:41:03;3.60;;;1.80;;
25731;SDS011;13585;50.864;4.406;2022-12-07T08:43:29;3.42;;;1.88;;
25731;SDS011;13585;50.864;4.406;2022-12-07T08:48:33;5.18;;;2.17;;
25731;SDS011;13585;50.864;4.406;2022-12-07T08:51:01;5.43;;;2.17;;
25731;SDS011;13585;50.864;4.406;2022-12-07T08:53:27;3.10;;;1.88;;
25731;SDS011;13585;50.864;4.406;2022-12-07T08:55:54;2.65;;;1.88;;
25731;SDS011;13585;50.864;4.406;2022-12-07T08:58:21;3.17;;;1.80;;
25731;SDS011;13585;50.864;4.406;2022-12-07T09:00:47;2.53;;;1.95;;
25731;SDS011;13585;50.864;4.406;2022-12-07T09:03:12;3.28;;;2.22;;
25731;SDS011;13585;50.864;4.406;2022-12-07T09:05:38;3.20;;;1.77;;
25731;SDS011;13585;50.864;4.406;2022-12-07T09:08:04;2.75;;;1.80;;
25731;SDS011;13585;50.864;4.406;2022-12-07T09:10:30;4.10;;;2.00;;
25731;SDS011;13585;50.864;4.406;2022-12-07T09:12:56;2.40;;;1.75;;
25731;SDS011;13585;50.864;4.406;2022-12-07T09:15:25;3.33;;;1.90;;
25731;SDS011;13585;50.864;4.406;2022-12-07T09:17:54;2.92;;;2.10;;
25731;SDS011;13585;50.864;4.406;2022-12-07T09:20:20;4.15;;;1.80;;
25731;SDS011;13585;50.864;4.406;2022-12-07T09:22:46;3.33;;;1.80;;
25731;SDS011;13585;50.864;4.406;2022-12-07T09:25:11;3.55;;;1.80;;
25731;SDS011;13585;50.864;4.406;2022-12-07T09:27:37;2.70;;;1.92;;
25731;SDS011;13585;50.864;4.406;2022-12-07T09:30:04;2.85;;;2.05;;
25731;SDS011;13585;50.864;4.406;2022-12-07T09:32:30;3.55;;;2.00;;
25731;SDS011;13585;50.864;4.406;2022-12-07T09:34:56;3.90;;;1.90;;
25731;SDS011;13585;50.864;4.406;2022-12-07T09:37:21;1.70;;;1.60;;
25731;SDS011;13585;50.864;4.406;2022-12-07T09:39:47;2.92;;;1.92;;
25731;SDS011;13585;50.864;4.406;2022-12-07T09:42:25;2.75;;;1.73;;
25731;SDS011;13585;50.864;4.406;2022-12-07T09:44:54;3.35;;;1.83;;
25731;SDS011;13585;50.864;4.406;2022-12-07T09:47:20;2.83;;;1.70;;
25731;SDS011;13585;50.864;4.406;2022-12-07T09:49:46;3.20;;;1.77;;
25731;SDS011;13585;50.864;4.406;2022-12-07T09:54:39;2.85;;;1.70;;
25731;SDS011;13585;50.864;4.406;2022-12-07T09:57:08;3.25;;;2.00;;
25731;SDS011;13585;50.864;4.406;2022-12-07T09:59:37;3.30;;;2.00;;
25731;SDS011;13585;50.864;4.406;2022-12-07T10:02:23;3.60;;;1.70;;
25731;SDS011;13585;50.864;4.406;2022-12-07T10:05:09;2.42;;;1.70;;
25731;SDS011;13585;50.864;4.406;2022-12-07T10:10:06;3.67;;;1.60;;
25731;SDS011;13585;50.864;4.406;2022-12-07T10:15:40;2.80;;;1.25;;
25731;SDS011;13585;50.864;4.406;2022-12-07T10:18:19;2.38;;;1.73;;
25731;SDS011;13585;50.864;4.406;2022-12-07T10:20:50;2.97;;;1.40;;
25731;SDS011;13585;50.864;4.406;2022-12-07T10:23:32;3.22;;;1.75;;
25731;SDS011;13585;50.864;4.406;2022-12-07T10:26:12;3.72;;;1.95;;
25731;SDS011;13585;50.864;4.406;2022-12-07T10:28:46;2.50;;;1.85;;
25731;SDS011;13585;50.864;4.406;2022-12-07T10:31:17;2.58;;;1.77;;
25731;SDS011;13585;50.864;4.406;2022-12-07T10:39:00;4.82;;;1.92;;
25731;SDS011;13585;50.864;4.406;2022-12-07T10:41:57;1.45;;;1.20;;
25731;SDS011;13585;50.864;4.406;2022-12-07T10:44:28;2.60;;;1.92;;
25731;SDS011;13585;50.864;4.406;2022-12-07T10:57:53;1.95;;;1.70;;
25731;SDS011;13585;50.864;4.406;2022-12-07T11:00:31;2.95;;;1.58;;
25731;SDS011;13585;50.864;4.406;2022-12-07T11:03:21;2.75;;;1.73;;
25731;SDS011;13585;50.864;4.406;2022-12-07T11:08:47;2.42;;;1.77;;
25731;SDS011;13585;50.864;4.406;2022-12-07T11:11:42;3.97;;;1.80;;
25731;SDS011;13585;50.864;4.406;2022-12-07T11:14:16;3.15;;;1.83;;
25731;SDS011;13585;50.864;4.406;2022-12-07T11:17:10;2.80;;;1.70;;
25731;SDS011;13585;50.864;4.406;2022-12-07T11:20:13;3.10;;;1.90;;
25731;SDS011;13585;50.864;4.406;2022-12-07T11:25:38;1.52;;;1.42;;
25731;SDS011;13585;50.864;4.406;2022-12-07T11:28:30;3.70;;;1.60;;
25731;SDS011;13585;50.864;4.406;2022-12-07T11:31:10;2.55;;;1.90;;
25731;SDS011;13585;50.864;4.406;2022-12-07T11:33:49;2.92;;;1.83;;
25731;SDS011;13585;50.864;4.406;2022-12-07T11:39:08;3.13;;;1.83;;
25731;SDS011;13585;50.864;4.406;2022-12-07T11:41:48;3.20;;;1.70;;
25731;SDS011;13585;50.864;4.406;2022-12-07T11:52:49;4.18;;;1.73;;
25731;SDS011;13585;50.864;4.406;2022-12-07T12:04:04;2.65;;;1.65;;
25731;SDS011;13585;50.864;4.406;2022-12-07T12:06:37;2.92;;;2.00;;
25731;SDS011;13585;50.864;4.406;2022-12-07T12:09:05;3.78;;;1.73;;
25731;SDS011;13585;50.864;4.406;2022-12-07T12:19:42;3.30;;;1.83;;
25731;SDS011;13585;50.864;4.406;2022-12-07T12:22:22;2.78;;;1.77;;
25731;SDS011;13585;50.864;4.406;2022-12-07T12:24:58;3.20;;;1.67;;
25731;SDS011;13585;50.864;4.406;2022-12-07T12:29:55;2.63;;;1.60;;
25731;SDS011;13585;50.864;4.406;2022-12-07T12:32:28;3.92;;;1.70;;
25731;SDS011;13585;50.864;4.406;2022-12-07T12:35:17;3.03;;;1.80;;
25731;SDS011;13585;50.864;4.406;2022-12-07T12:37:48;1.50;;;1.30;;
25731;SDS011;13585;50.864;4.406;2022-12-07T12:42:51;2.35;;;1.70;;
25731;SDS011;13585;50.864;4.406;2022-12-07T12:45:26;3.08;;;1.80;;
25731;SDS011;13585;50.864;4.406;2022-12-07T12:48:36;2.42;;;1.50;;
25731;SDS011;13585;50.864;4.406;2022-12-07T12:54:12;2.35;;;1.75;;
25731;SDS011;13585;50.864;4.406;2022-12-07T12:59:28;2.97;;;1.92;;
25731;SDS011;13585;50.864;4.406;2022-12-07T13:01:58;2.30;;;1.50;;
25731;SDS011;13585;50.864;4.406;2022-12-07T13:04:55;3.63;;;1.83;;
25731;SDS011;13585;50.864;4.406;2022-12-07T13:15:45;2.90;;;1.67;;
25731;SDS011;13585;50.864;4.406;2022-12-07T13:29:03;3.38;;;1.70;;
25731;SDS011;13585;50.864;4.406;2022-12-07T13:31:38;3.83;;;1.40;;
25731;SDS011;13585;50.864;4.406;2022-12-07T13:34:31;3.05;;;1.67;;
25731;SDS011;13585;50.864;4.406;2022-12-07T13:37:16;3.50;;;1.33;;
25731;SDS011;13585;50.864;4.406;2022-12-07T13:39:51;2.83;;;1.63;;
25731;SDS011;13585;50.864;4.406;2022-12-07T13:42:25;2.25;;;1.80;;
25731;SDS011;13585;50.864;4.406;2022-12-07T13:44:58;2.63;;;1.50;;
25731;SDS011;13585;50.864;4.406;2022-12-07T13:47:33;3.40;;;1.70;;
25731;SDS011;13585;50.864;4.406;2022-12-07T13:52:50;4.15;;;1.50;;
25731;SDS011;13585;50.864;4.406;2022-12-07T13:55:21;3.00;;;1.75;;
25731;SDS011;13585;50.864;4.406;2022-12-07T13:57:50;2.45;;;1.45;;
25731;SDS011;13585;50.864;4.406;2022-12-07T14:00:21;2.38;;;1.40;;
25731;SDS011;13585;50.864;4.406;2022-12-07T14:02:59;2.50;;;1.50;;
25731;SDS011;13585;50.864;4.406;2022-12-07T14:05:37;2.42;;;1.50;;
25731;SDS011;13585;50.864;4.406;2022-12-07T14:10:38;4.40;;;1.63;;
25731;SDS011;13585;50.864;4.406;2022-12-07T14:13:21;3.20;;;1.52;;
25731;SDS011;13585;50.864;4.406;2022-12-07T14:35:37;2.40;;;1.30;;
25731;SDS011;13585;50.864;4.406;2022-12-07T14:38:05;2.97;;;1.27;;
25731;SDS011;13585;50.864;4.406;2022-12-07T14:40:31;3.33;;;1.20;;
25731;SDS011;13585;50.864;4.406;2022-12-07T14:43:01;2.58;;;1.50;;
25731;SDS011;13585;50.864;4.406;2022-12-07T14:45:29;2.78;;;1.45;;
25731;SDS011;13585;50.864;4.406;2022-12-07T14:47:55;2.85;;;1.63;;
25731;SDS011;13585;50.864;4.406;2022-12-07T14:50:23;2.50;;;1.50;;
25731;SDS011;13585;50.864;4.406;2022-12-07T14:52:55;2.78;;;1.30;;
25731;SDS011;13585;50.864;4.406;2022-12-07T14:55:25;1.45;;;1.10;;
25731;SDS011;13585;50.864;4.406;2022-12-07T14:57:52;2.42;;;1.33;;
25731;SDS011;13585;50.864;4.406;2022-12-07T15:00:19;2.38;;;1.10;;
25731;SDS011;13585;50.864;4.406;2022-12-07T15:02:46;2.25;;;1.40;;
25731;SDS011;13585;50.864;4.406;2022-12-07T15:05:13;2.80;;;1.23;;
25731;SDS011;13585;50.864;4.406;2022-12-07T15:07:39;3.15;;;1.25;;
25731;SDS011;13585;50.864;4.406;2022-12-07T15:10:05;2.33;;;1.23;;
25731;SDS011;13585;50.864;4.406;2022-12-07T15:12:37;2.22;;;1.23;;
25731;SDS011;13585;50.864;4.406;2022-12-07T15:15:03;2.42;;;1.25;;
25731;SDS011;13585;50.864;4.406;2022-12-07T15:17:29;2.40;;;1.45;;
25731;SDS011;13585;50.864;4.406;2022-12-07T15:19:55;2.85;;;1.42;;
25731;SDS011;13585;50.864;4.406;2022-12-07T15:22:20;3.25;;;1.30;;
25731;SDS011;13585;50.864;4.406;2022-12-07T15:24:46;2.25;;;1.38;;
25731;SDS011;13585;50.864;4.406;2022-12-07T15:27:12;2.45;;;1.40;;
25731;SDS011;13585;50.864;4.406;2022-12-07T15:29:37;2.50;;;1.20;;
25731;SDS011;13585;50.864;4.406;2022-12-07T15:32:03;3.78;;;1.52;;
25731;SDS011;13585;50.864;4.406;2022-12-07T15:34:28;2.65;;;1.30;;
25731;SDS011;13585;50.864;4.406;2022-12-07T15:36:56;2.83;;;1.30;;
25731;SDS011;13585;50.864;4.406;2022-12-07T15:39:21;2.22;;;1.45;;
25731;SDS011;13585;50.864;4.406;2022-12-07T15:41:47;3.50;;;1.40;;
25731;SDS011;13585;50.864;4.406;2022-12-07T15:44:13;2.00;;;1.20;;
25731;SDS011;13585;50.864;4.406;2022-12-07T15:46:57;2.75;;;1.13;;
25731;SDS011;13585;50.864;4.406;2022-12-07T15:49:22;2.30;;;1.30;;
25731;SDS011;13585;50.864;4.406;2022-12-07T15:51:48;2.42;;;1.40;;
25731;SDS011;13585;50.864;4.406;2022-12-07T15:54:16;2.38;;;1.50;;
25731;SDS011;13585;50.864;4.406;2022-12-07T15:56:44;2.10;;;1.50;;
25731;SDS011;13585;50.864;4.406;2022-12-07T15:59:10;2.42;;;1.27;;
25731;SDS011;13585;50.864;4.406;2022-12-07T16:01:36;2.33;;;1.30;;
25731;SDS011;13585;50.864;4.406;2022-12-07T16:04:01;3.00;;;1.35;;
25731;SDS011;13585;50.864;4.406;2022-12-07T16:06:27;1.20;;;1.10;;
25731;SDS011;13585;50.864;4.406;2022-12-07T16:08:52;2.10;;;1.20;;
25731;SDS011;13585;50.864;4.406;2022-12-07T16:11:18;2.47;;;1.27;;
25731;SDS011;13585;50.864;4.406;2022-12-07T16:13:44;1.77;;;1.02;;
25731;SDS011;13585;50.864;4.406;2022-12-07T16:16:10;3.00;;;1.30;;
25731;SDS011;13585;50.864;4.406;2022-12-07T16:18:38;2.15;;;1.20;;
25731;SDS011;13585;50.864;4.406;2022-12-07T16:21:04;1.75;;;1.17;;
25731;SDS011;13585;50.864;4.406;2022-12-07T16:23:30;2.97;;;1.50;;
25731;SDS011;13585;50.864;4.406;2022-12-07T16:26:03;2.00;;;1.20;;
25731;SDS011;13585;50.864;4.406;2022-12-07T16:28:32;2.33;;;1.40;;
25731;SDS011;13585;50.864;4.406;2022-12-07T16:31:08;1.50;;;1.10;;
25731;SDS011;13585;50.864;4.406;2022-12-07T16:33:39;2.72;;;1.10;;
25731;SDS011;13585;50.864;4.406;2022-12-07T16:36:06;2.67;;;1.30;;
25731;SDS011;13585;50.864;4.406;2022-12-07T16:38:34;1.70;;;1.40;;
25731;SDS011;13585;50.864;4.406;2022-12-07T16:41:01;3.40;;;1.15;;
25731;SDS011;13585;50.864;4.406;2022-12-07T16:43:26;1.92;;;1.10;;
25731;SDS011;13585;50.864;4.406;2022-12-07T16:45:52;2.28;;;1.30;;
25731;SDS011;13585;50.864;4.406;2022-12-07T16:48:18;2.17;;;1.20;;
25731;SDS011;13585;50.864;4.406;2022-12-07T16:50:44;1.38;;;1.10;;
25731;SDS011;13585;50.864;4.406;2022-12-07T16:53:10;2.63;;;1.10;;
25731;SDS011;13585;50.864;4.406;2022-12-07T16:55:37;1.38;;;1.00;;
25731;SDS011;13585;50.864;4.406;2022-12-07T16:58:04;1.77;;;1.23;;
25731;SDS011;13585;50.864;4.406;2022-12-07T17:00:31;1.42;;;1.10;;
25731;SDS011;13585;50.864;4.406;2022-12-07T17:02:57;1.92;;;1.20;;
25731;SDS011;13585;50.864;4.406;2022-12-07T17:05:23;1.67;;;1.25;;
25731;SDS011;13585;50.864;4.406;2022-12-07T17:07:49;2.00;;;1.30;;
25731;SDS011;13585;50.864;4.406;2022-12-07T17:10:15;3.03;;;1.10;;
25731;SDS011;13585;50.864;4.406;2022-12-07T17:12:41;2.08;;;1.10;;
25731;SDS011;13585;50.864;4.406;2022-12-07T17:15:06;1.52;;;1.17;;
25731;SDS011;13585;50.864;4.406;2022-12-07T17:17:42;1.73;;;1.13;;
25731;SDS011;13585;50.864;4.406;2022-12-07T17:20:11;2.05;;;1.25;;
25731;SDS011;13585;50.864;4.406;2022-12-07T17:22:37;1.88;;;1.30;;
25731;SDS011;13585;50.864;4.406;2022-12-07T17:25:03;1.20;;;1.10;;
25731;SDS011;13585;50.864;4.406;2022-12-07T17:27:30;2.95;;;1.20;;
25731;SDS011;13585;50.864;4.406;2022-12-07T17:29:56;1.75;;;1.20;;
25731;SDS011;13585;50.864;4.406;2022-12-07T17:32:22;2.05;;;1.20;;
25731;SDS011;13585;50.864;4.406;2022-12-07T17:34:47;2.25;;;1.20;;
25731;SDS011;13585;50.864;4.406;2022-12-07T17:37:13;1.70;;;1.40;;
25731;SDS011;13585;50.864;4.406;2022-12-07T17:39:38;1.85;;;1.10;;
25731;SDS011;13585;50.864;4.406;2022-12-07T17:42:04;3.45;;;1.33;;
25731;SDS011;13585;50.864;4.406;2022-12-07T17:44:49;1.35;;;1.05;;